createdAt,value
2023-04-24T00:03:00.878Z,26.4
2023-04-24T00:08:53.651Z,26.4
2023-04-24T00:14:45.673Z,26.4
2023-04-24T00:20:36.821Z,26.4
2023-04-24T00:26:28.413Z,26.4
2023-04-24T00:32:19.476Z,26.3
2023-04-24T00:38:10.816Z,26.3
2023-04-24T00:44:01.902Z,26.3
2023-04-24T00:49:52.913Z,26.3
2023-04-24T00:55:44.129Z,26.3
2023-04-24T01:01:20.182Z,26.3
2023-04-24T01:07:13.103Z,26.3
2023-04-24T01:13:04.941Z,26.2
2023-04-24T01:18:56.598Z,26.2
2023-04-24T01:24:48.770Z,26.2
2023-04-24T01:30:40.264Z,26.1
2023-04-24T01:42:08.374Z,26.1
2023-04-24T01:48:00.155Z,26.1
2023-04-24T01:53:51.693Z,26.1
2023-04-24T01:59:43.352Z,26.1
2023-04-24T02:05:36.957Z,26.1
2023-04-24T02:11:28.736Z,26
2023-04-24T02:17:20.206Z,26
2023-04-24T02:23:11.031Z,26
2023-04-24T02:28:46.757Z,26
2023-04-24T02:34:38.329Z,26
2023-04-24T02:40:29.961Z,26
2023-04-24T02:46:21.209Z,26.1
2023-04-24T02:52:13.082Z,26
2023-04-24T02:58:04.245Z,26.1
2023-04-24T03:03:57.321Z,26
2023-04-24T03:09:49.725Z,25.9
2023-04-24T03:15:41.395Z,25.9
2023-04-24T03:21:36.292Z,25.9
2023-04-24T03:27:27.797Z,25.9
2023-04-24T03:33:20.224Z,25.9
2023-04-24T03:39:11.644Z,25.8
2023-04-24T03:44:50.307Z,25.8
2023-04-24T03:50:43.681Z,25.8
2023-04-24T03:56:35.193Z,25.8
2023-04-24T04:02:26.832Z,25.8
2023-04-24T04:08:20.361Z,25.7
2023-04-24T04:14:11.559Z,25.7
2023-04-24T04:20:03.304Z,25.6
2023-04-24T04:25:54.895Z,25.6
2023-04-24T04:31:46.341Z,25.4
2023-04-24T04:37:38.287Z,25.3
2023-04-24T04:43:30.345Z,25.3
2023-04-24T04:49:22.058Z,25.1
2023-04-24T04:55:13.992Z,25.1
2023-04-24T05:01:09.077Z,25
2023-04-24T05:07:01.857Z,24.9
2023-04-24T05:13:02.645Z,24.8
2023-04-24T05:19:04.179Z,24.8
2023-04-24T05:24:55.252Z,24.7
2023-04-24T05:30:30.891Z,24.7
2023-04-24T05:36:07.861Z,24.6
2023-04-24T05:41:58.837Z,24.6
2023-04-24T05:47:50.672Z,24.6
2023-04-24T05:53:26.632Z,24.5
2023-04-24T05:59:18.230Z,24.5
2023-04-24T06:05:12.745Z,24.5
2023-04-24T06:16:26.501Z,24.4
2023-04-24T06:22:18.639Z,20.4
2023-04-24T06:27:54.619Z,22.6
2023-04-24T06:33:54.713Z,21.7
2023-04-24T06:39:46.585Z,22.9
2023-04-24T06:45:22.923Z,23.6
2023-04-24T06:51:00.267Z,25.3
2023-04-24T06:56:51.632Z,25.4
2023-04-24T07:02:45.462Z,26.2
2023-04-24T07:08:38.646Z,27.1
2023-04-24T07:14:30.712Z,27.8
2023-04-24T07:20:07.826Z,26.9
2023-04-24T07:25:45.893Z,29.6
2023-04-24T07:31:22.997Z,31.2
2023-04-24T07:37:15.087Z,32.8
2023-04-24T07:43:06.822Z,33.8
2023-04-24T07:49:12.085Z,34.8
2023-04-24T07:55:04.907Z,35.8
2023-04-24T08:00:59.169Z,36.8
2023-04-24T08:06:55.581Z,37.9
2023-04-24T08:12:33.755Z,38.8
2023-04-24T08:18:25.694Z,39.7
2023-04-24T08:24:17.760Z,40.7
2023-04-24T08:30:11.615Z,41.7
2023-04-24T08:35:48.718Z,42.1
2023-04-24T08:41:33.767Z,43.3
2023-04-24T08:47:32.675Z,44.2
2023-04-24T08:53:33.618Z,45.1
2023-04-24T08:59:25.250Z,46.1
2023-04-24T09:05:04.623Z,47
2023-04-24T09:10:56.435Z,47.6
2023-04-24T09:16:47.841Z,46.4
2023-04-24T09:22:24.328Z,45.9
2023-04-24T09:28:17.115Z,46.8
2023-04-24T09:33:53.674Z,48.8
2023-04-24T09:39:29.254Z,50.6
2023-04-24T09:45:30.873Z,50.4
2023-04-24T09:51:25.450Z,51.4
2023-04-24T09:57:18.334Z,50.9
2023-04-24T10:03:11.208Z,53.1
2023-04-24T10:09:03.934Z,51.8
2023-04-24T10:14:56.168Z,53.4
2023-04-24T10:20:48.543Z,53.6
2023-04-24T10:26:40.190Z,52.8
2023-04-24T10:32:32.148Z,54.1
2023-04-24T10:38:23.776Z,53.4
2023-04-24T10:44:15.737Z,54.3
2023-04-24T10:50:07.793Z,55.8
2023-04-24T10:55:59.654Z,54.1
2023-04-24T11:01:52.183Z,53.8
2023-04-24T11:07:30.289Z,50.4
2023-04-24T11:13:08.404Z,48.7
2023-04-24T11:18:45.850Z,47.2
